createdAt,value
2023-05-25T00:01:49.536Z,5.70
2023-05-25T00:04:17.555Z,4.82
2023-05-25T00:06:47.573Z,6.15
2023-05-25T00:09:14.834Z,4.93
2023-05-25T00:11:41.752Z,6.57
2023-05-25T00:14:08.720Z,5.65
2023-05-25T00:16:37.908Z,12.80
2023-05-25T00:19:07.278Z,5.60
2023-05-25T00:21:38.563Z,6.97
2023-05-25T00:24:08.340Z,5.43
2023-05-25T00:26:36.242Z,4.80
2023-05-25T00:29:07.449Z,5.38
2023-05-25T00:31:35.796Z,5.05
2023-05-25T00:34:02.828Z,5.72
2023-05-25T00:36:29.558Z,4.90
2023-05-25T00:38:56.489Z,5.38
2023-05-25T00:41:25.037Z,7.72
2023-05-25T00:43:52.022Z,4.85
2023-05-25T00:46:19.140Z,6.05
2023-05-25T00:48:45.914Z,6.95
2023-05-25T00:53:56.818Z,7.82
2023-05-25T00:56:29.316Z,6.00
2023-05-25T00:59:00.947Z,4.78
2023-05-25T01:01:34.531Z,7.70
2023-05-25T01:04:03.936Z,4.20
2023-05-25T01:06:34.197Z,6.65
2023-05-25T01:09:04.885Z,6.18
2023-05-25T01:11:37.296Z,4.85
2023-05-25T01:14:04.443Z,7.13
2023-05-25T01:16:32.419Z,5.65
2023-05-25T01:18:59.306Z,7.75
2023-05-25T01:21:38.110Z,4.80
2023-05-25T01:24:22.658Z,5.38
2023-05-25T01:26:58.037Z,5.78
2023-05-25T01:29:28.282Z,5.72
2023-05-25T01:31:58.584Z,4.68
2023-05-25T01:34:26.913Z,6.15
2023-05-25T01:36:54.144Z,5.10
2023-05-25T01:39:24.018Z,5.18
2023-05-25T01:41:51.063Z,6.00
2023-05-25T01:44:18.447Z,4.97
2023-05-25T01:46:45.829Z,4.82
2023-05-25T01:49:30.031Z,4.60
2023-05-25T01:52:18.228Z,4.18
2023-05-25T01:54:53.688Z,5.47
2023-05-25T01:57:21.269Z,5.95
2023-05-25T01:59:50.758Z,8.20
2023-05-25T02:02:21.148Z,4.85
2023-05-25T02:04:51.151Z,6.22
2023-05-25T02:07:18.118Z,4.13
2023-05-25T02:09:46.470Z,6.55
2023-05-25T02:12:13.217Z,7.30
2023-05-25T02:14:40.258Z,5.65
2023-05-25T02:17:07.811Z,7.68
2023-05-25T02:19:36.250Z,5.82
2023-05-25T02:22:03.152Z,6.30
2023-05-25T02:24:30.028Z,7.00
2023-05-25T02:26:56.930Z,5.40
2023-05-25T02:29:23.827Z,6.55
2023-05-25T02:31:50.916Z,6.25
2023-05-25T02:34:17.895Z,7.82
2023-05-25T02:36:45.167Z,6.32
2023-05-25T02:39:12.207Z,7.30
2023-05-25T02:41:39.540Z,5.97
2023-05-25T02:44:06.693Z,5.80
2023-05-25T02:46:34.087Z,7.07
2023-05-25T02:49:01.456Z,4.75
2023-05-25T02:51:28.979Z,7.75
2023-05-25T02:53:56.124Z,6.90
2023-05-25T02:56:23.283Z,5.35
2023-05-25T02:58:51.015Z,5.82
2023-05-25T03:01:19.369Z,10.20
2023-05-25T03:03:47.417Z,7.05
2023-05-25T03:06:14.717Z,4.75
2023-05-25T03:08:43.437Z,6.80
2023-05-25T03:11:10.549Z,5.78
2023-05-25T03:13:37.511Z,6.05
2023-05-25T03:16:04.444Z,5.32
2023-05-25T03:18:31.659Z,7.80
2023-05-25T03:23:48.141Z,4.97
2023-05-25T03:26:15.901Z,4.53
2023-05-25T03:28:42.940Z,5.22
2023-05-25T03:31:10.078Z,5.43
2023-05-25T03:33:36.886Z,9.90
2023-05-25T03:36:09.768Z,6.88
2023-05-25T03:38:39.801Z,6.55
2023-05-25T03:41:06.892Z,7.20
2023-05-25T03:43:34.498Z,5.97
2023-05-25T03:46:01.462Z,6.32
2023-05-25T03:48:28.289Z,8.32
2023-05-25T03:50:55.113Z,7.28
2023-05-25T03:53:22.173Z,6.65
2023-05-25T03:55:52.338Z,9.68
2023-05-25T03:58:19.371Z,8.00
2023-05-25T04:00:52.555Z,9.70
2023-05-25T04:03:24.551Z,7.88
2023-05-25T04:05:53.554Z,5.53
2023-05-25T04:08:20.366Z,6.10
2023-05-25T04:10:47.155Z,12.18
2023-05-25T04:13:14.556Z,5.45
2023-05-25T04:15:42.132Z,7.32
2023-05-25T04:18:09.098Z,6.93
2023-05-25T04:20:36.626Z,5.70
2023-05-25T04:23:03.751Z,6.93
2023-05-25T04:25:32.401Z,4.78
2023-05-25T04:27:59.802Z,9.55
2023-05-25T04:30:26.727Z,5.35
2023-05-25T04:32:55.075Z,4.90
2023-05-25T04:35:22.806Z,7.88
2023-05-25T04:37:49.539Z,8.10
2023-05-25T04:40:16.376Z,5.20
2023-05-25T04:42:54.197Z,4.70
2023-05-25T04:45:21.676Z,9.35
2023-05-25T04:47:50.096Z,9.27
2023-05-25T04:50:17.140Z,7.20
2023-05-25T04:52:46.105Z,9.40
2023-05-25T04:55:19.177Z,10.73
2023-05-25T04:57:46.051Z,11.80
2023-05-25T05:00:15.999Z,10.75
2023-05-25T05:02:46.967Z,9.15
2023-05-25T05:05:13.979Z,8.93
2023-05-25T05:07:41.452Z,10.07
2023-05-25T05:10:09.021Z,6.80
2023-05-25T05:12:36.343Z,10.20
2023-05-25T05:15:03.450Z,11.10
2023-05-25T05:17:31.487Z,12.68
2023-05-25T05:19:58.498Z,10.40
2023-05-25T05:22:25.639Z,10.50
2023-05-25T05:24:52.456Z,11.10
2023-05-25T05:27:19.661Z,9.63
2023-05-25T05:29:46.856Z,9.35
2023-05-25T05:32:14.063Z,13.65
2023-05-25T05:34:51.908Z,9.27
2023-05-25T05:37:19.607Z,9.73
2023-05-25T05:39:49.472Z,10.52
2023-05-25T05:42:19.504Z,9.73
2023-05-25T05:44:48.387Z,14.35
2023-05-25T05:47:15.377Z,7.47
2023-05-25T05:49:42.564Z,12.38
2023-05-25T05:52:10.426Z,9.05
2023-05-25T05:54:37.517Z,7.00
2023-05-25T05:57:07.673Z,12.52
2023-05-25T05:59:34.846Z,10.13
2023-05-25T06:02:04.741Z,10.32
2023-05-25T06:04:31.813Z,9.00
2023-05-25T06:06:59.208Z,12.07
2023-05-25T06:09:28.796Z,10.57
2023-05-25T06:11:55.580Z,10.27
2023-05-25T06:14:22.300Z,10.13
2023-05-25T06:16:49.304Z,9.98
2023-05-25T06:19:16.426Z,10.30
2023-05-25T06:21:43.291Z,11.50
2023-05-25T06:24:11.392Z,11.13
2023-05-25T06:26:38.870Z,7.72
2023-05-25T06:29:05.669Z,15.55
2023-05-25T06:31:33.039Z,11.70
2023-05-25T06:34:00.146Z,9.23
2023-05-25T06:36:27.477Z,11.30
2023-05-25T06:38:54.427Z,8.50
2023-05-25T06:41:21.243Z,9.05
2023-05-25T06:43:48.136Z,12.15
2023-05-25T06:46:18.368Z,7.70
2023-05-25T06:48:46.419Z,11.05
2023-05-25T06:51:14.263Z,12.20
2023-05-25T06:53:41.179Z,12.00
2023-05-25T06:56:08.310Z,9.60
2023-05-25T06:58:35.180Z,9.48
2023-05-25T07:01:04.682Z,8.73
2023-05-25T07:03:38.858Z,11.55
2023-05-25T07:06:06.732Z,9.07
2023-05-25T07:08:33.687Z,10.73
2023-05-25T07:11:01.060Z,8.85
2023-05-25T07:13:27.964Z,15.75
2023-05-25T07:15:54.825Z,9.38
2023-05-25T07:18:21.916Z,13.43
2023-05-25T07:20:49.073Z,9.40
2023-05-25T07:23:15.928Z,9.00
2023-05-25T07:25:43.141Z,10.43
2023-05-25T07:28:10.255Z,16.17
2023-05-25T07:30:39.724Z,10.43
2023-05-25T07:33:06.710Z,11.48
2023-05-25T07:35:35.603Z,11.85
2023-05-25T07:38:06.973Z,12.23
2023-05-25T07:40:33.979Z,13.05
2023-05-25T07:43:01.082Z,10.05
2023-05-25T07:45:27.943Z,10.15
2023-05-25T07:47:55.097Z,14.73
2023-05-25T07:50:22.263Z,15.00
2023-05-25T07:52:49.033Z,10.60
2023-05-25T07:55:16.142Z,9.88
2023-05-25T07:57:43.228Z,9.77
2023-05-25T08:00:11.250Z,13.32
2023-05-25T08:02:46.808Z,12.27
2023-05-25T08:05:13.941Z,15.52
2023-05-25T08:07:42.923Z,15.23
2023-05-25T08:10:10.865Z,12.82
2023-05-25T08:12:49.032Z,10.98
2023-05-25T08:15:18.724Z,17.98
2023-05-25T08:17:46.051Z,18.85
2023-05-25T08:20:14.458Z,16.08
2023-05-25T08:22:41.381Z,26.05
2023-05-25T08:25:08.568Z,16.30
2023-05-25T08:27:36.463Z,14.93
2023-05-25T08:30:06.280Z,13.43
2023-05-25T08:32:33.252Z,15.10
2023-05-25T08:35:00.053Z,17.30
2023-05-25T08:37:27.234Z,14.07
2023-05-25T08:39:54.212Z,15.85
2023-05-25T08:42:21.094Z,18.25
2023-05-25T08:44:48.175Z,17.17
2023-05-25T08:47:17.661Z,11.98
2023-05-25T08:49:45.523Z,15.27
2023-05-25T08:52:15.646Z,12.10
2023-05-25T08:54:47.758Z,19.38
2023-05-25T08:57:24.078Z,11.95
2023-05-25T09:00:10.923Z,13.10
2023-05-25T09:03:09.731Z,9.90
2023-05-25T09:05:41.062Z,11.27
2023-05-25T09:08:09.551Z,9.15
2023-05-25T09:10:45.069Z,9.80
2023-05-25T09:13:21.966Z,8.10
2023-05-25T09:15:50.892Z,12.48
2023-05-25T09:18:17.951Z,10.13
2023-05-25T09:20:46.941Z,7.30
2023-05-25T09:23:15.867Z,8.70
2023-05-25T09:25:44.117Z,5.18
2023-05-25T09:30:41.656Z,9.90
2023-05-25T09:33:17.831Z,5.72
2023-05-25T09:35:46.890Z,7.32
2023-05-25T09:38:16.082Z,5.85
2023-05-25T09:40:43.922Z,9.13
2023-05-25T09:43:17.183Z,9.93
2023-05-25T09:45:49.682Z,10.35
2023-05-25T09:48:18.139Z,8.23
2023-05-25T09:50:48.046Z,10.05
2023-05-25T09:53:16.399Z,5.63
2023-05-25T09:55:53.076Z,9.68
2023-05-25T09:58:23.940Z,6.95
2023-05-25T10:00:54.805Z,7.10
2023-05-25T10:03:22.006Z,10.15
2023-05-25T10:05:49.542Z,6.32
2023-05-25T10:08:20.421Z,9.57
2023-05-25T10:10:50.124Z,7.07
2023-05-25T10:13:23.054Z,6.03
2023-05-25T10:15:55.024Z,6.60
2023-05-25T10:18:27.484Z,5.60
2023-05-25T10:21:02.013Z,6.10
2023-05-25T10:23:38.425Z,4.63
2023-05-25T10:26:06.457Z,8.98
2023-05-25T10:31:19.128Z,7.32
2023-05-25T10:33:50.582Z,3.33
2023-05-25T10:36:21.564Z,5.38
2023-05-25T10:38:51.819Z,6.30
2023-05-25T10:41:21.139Z,3.60
2023-05-25T10:43:49.268Z,4.13
2023-05-25T10:46:17.190Z,5.63
2023-05-25T10:48:53.136Z,6.05
2023-05-25T10:51:21.078Z,6.95
2023-05-25T10:54:03.651Z,5.55
2023-05-25T10:56:30.929Z,7.88
2023-05-25T11:01:28.959Z,3.23
2023-05-25T11:04:17.779Z,5.00
2023-05-25T11:07:24.426Z,5.72
2023-05-25T11:10:09.536Z,4.18
2023-05-25T11:16:36.512Z,2.92
2023-05-25T11:19:04.028Z,7.10
2023-05-25T11:21:46.683Z,8.23
2023-05-25T11:24:21.958Z,5.82
2023-05-25T11:26:57.320Z,5.80
2023-05-25T11:29:32.578Z,8.40
2023-05-25T11:32:07.427Z,7.90
2023-05-25T11:34:34.557Z,7.68
2023-05-25T11:37:05.641Z,5.68
2023-05-25T11:39:32.559Z,4.35
2023-05-25T11:45:03.846Z,6.65
2023-05-25T11:47:33.138Z,8.60
2023-05-25T11:50:05.927Z,4.65
2023-05-25T11:52:42.406Z,6.25
2023-05-25T11:55:22.804Z,4.20
2023-05-25T11:58:05.795Z,3.25
2023-05-25T12:00:32.836Z,3.10
2023-05-25T12:03:00.905Z,6.72
2023-05-25T12:05:40.319Z,4.47
2023-05-25T12:08:08.057Z,4.65
2023-05-25T12:10:50.420Z,4.75
2023-05-25T12:13:17.583Z,7.82
2023-05-25T12:15:46.044Z,2.72
2023-05-25T12:18:25.069Z,3.13
2023-05-25T12:20:55.438Z,2.78
2023-05-25T12:23:23.164Z,7.82
2023-05-25T12:25:53.298Z,3.35
2023-05-25T12:28:20.391Z,3.42
2023-05-25T12:30:47.572Z,3.92
2023-05-25T12:33:20.074Z,3.72
2023-05-25T12:35:52.669Z,4.15
2023-05-25T12:38:30.434Z,3.72
2023-05-25T12:41:07.667Z,3.03
2023-05-25T12:43:46.658Z,3.10
2023-05-25T12:46:27.939Z,3.10
2023-05-25T12:48:55.079Z,5.43
2023-05-25T12:51:39.250Z,4.43
2023-05-25T12:54:06.613Z,4.57
2023-05-25T12:56:33.479Z,2.63
2023-05-25T12:59:18.486Z,2.67
2023-05-25T13:01:46.634Z,4.15
2023-05-25T13:04:13.910Z,4.57
2023-05-25T13:06:41.148Z,4.03
2023-05-25T13:09:13.134Z,2.13
2023-05-25T13:11:40.068Z,2.22
2023-05-25T13:14:07.116Z,2.30
2023-05-25T13:16:34.498Z,3.17
2023-05-25T13:19:02.809Z,3.95
2023-05-25T13:21:29.800Z,4.95
2023-05-25T13:24:05.584Z,2.83
2023-05-25T13:26:32.806Z,3.97
2023-05-25T13:29:10.806Z,2.90
2023-05-25T13:31:37.938Z,5.55
2023-05-25T13:34:06.022Z,5.97
2023-05-25T13:36:34.753Z,4.07
2023-05-25T13:39:05.817Z,11.05
2023-05-25T13:41:36.922Z,5.68
2023-05-25T13:44:08.156Z,6.15
2023-05-25T13:46:37.799Z,4.72
2023-05-25T13:49:04.828Z,5.93
2023-05-25T13:51:36.233Z,3.08
2023-05-25T13:54:04.788Z,3.58
2023-05-25T13:56:37.980Z,5.03
2023-05-25T13:59:05.228Z,3.22
2023-05-25T14:01:33.360Z,7.68
2023-05-25T14:04:00.696Z,3.33
2023-05-25T14:06:29.414Z,7.30
2023-05-25T14:08:56.823Z,5.82
2023-05-25T14:11:28.594Z,3.78
2023-05-25T14:13:56.405Z,3.70
2023-05-25T14:16:23.332Z,3.58
2023-05-25T14:18:50.522Z,5.00
2023-05-25T14:21:17.666Z,5.97
2023-05-25T14:24:05.631Z,5.78
2023-05-25T14:26:42.227Z,3.05
2023-05-25T14:29:11.047Z,2.60
2023-05-25T14:31:42.095Z,2.60
2023-05-25T14:34:09.702Z,5.72
2023-05-25T14:36:38.218Z,3.80
2023-05-25T14:39:05.442Z,3.03
2023-05-25T14:41:32.545Z,3.30
2023-05-25T14:44:08.311Z,3.53
2023-05-25T14:46:40.523Z,3.25
2023-05-25T14:52:05.259Z,5.82
2023-05-25T14:54:32.272Z,3.60
2023-05-25T14:57:00.142Z,3.05
2023-05-25T14:59:29.654Z,2.67
2023-05-25T15:01:56.822Z,7.13
2023-05-25T15:04:30.409Z,4.55
2023-05-25T15:06:57.790Z,2.85
2023-05-25T15:09:24.871Z,3.25
2023-05-25T15:11:51.993Z,2.50
2023-05-25T15:14:19.005Z,3.70
2023-05-25T15:16:46.082Z,5.25
2023-05-25T15:19:15.909Z,3.25
2023-05-25T15:21:44.323Z,4.72
2023-05-25T15:24:14.281Z,3.30
2023-05-25T15:26:41.566Z,4.05
2023-05-25T15:29:08.488Z,7.35
2023-05-25T15:31:35.551Z,3.83
2023-05-25T15:34:09.499Z,3.63
2023-05-25T15:36:36.521Z,3.03
2023-05-25T15:39:04.800Z,3.97
2023-05-25T15:41:31.995Z,3.63
2023-05-25T15:44:01.278Z,2.60
2023-05-25T15:46:36.114Z,3.60
2023-05-25T15:49:13.424Z,2.92
2023-05-25T15:51:44.657Z,4.68
2023-05-25T15:54:14.387Z,2.92
2023-05-25T15:56:47.662Z,3.50
2023-05-25T15:59:17.775Z,3.95
2023-05-25T16:01:44.658Z,2.92
2023-05-25T16:04:11.599Z,2.30
2023-05-25T16:06:38.714Z,2.78
2023-05-25T16:09:14.484Z,2.33
2023-05-25T16:11:41.607Z,5.03
2023-05-25T16:14:08.525Z,4.22
2023-05-25T16:16:38.664Z,5.32
2023-05-25T16:19:05.903Z,3.15
2023-05-25T16:21:36.876Z,3.33
2023-05-25T16:24:05.384Z,5.38
2023-05-25T16:26:35.749Z,3.08
2023-05-25T16:29:03.980Z,2.88
2023-05-25T16:31:31.133Z,4.97
2023-05-25T16:33:58.375Z,3.63
2023-05-25T16:36:26.711Z,4.43
2023-05-25T16:38:53.749Z,2.65
2023-05-25T16:41:20.926Z,3.80
2023-05-25T16:43:48.141Z,3.65
2023-05-25T16:46:15.192Z,5.18
2023-05-25T16:48:42.280Z,3.03
2023-05-25T16:51:15.248Z,2.75
2023-05-25T16:53:43.905Z,4.53
2023-05-25T16:56:11.125Z,5.78
2023-05-25T16:58:38.205Z,3.75
2023-05-25T17:01:05.295Z,6.63
2023-05-25T17:03:32.338Z,5.40
2023-05-25T17:05:59.417Z,4.20
2023-05-25T17:08:29.467Z,1.95
2023-05-25T17:10:56.947Z,3.55
2023-05-25T17:13:23.874Z,2.47
2023-05-25T17:15:50.911Z,2.42
2023-05-25T17:18:18.121Z,2.88
2023-05-25T17:20:45.346Z,2.97
2023-05-25T17:23:12.596Z,6.47
2023-05-25T17:25:39.619Z,4.47
2023-05-25T17:28:06.497Z,3.90
2023-05-25T17:30:33.513Z,3.53
2023-05-25T17:33:01.861Z,2.50
2023-05-25T17:35:32.343Z,3.42
2023-05-25T17:37:59.362Z,3.17
2023-05-25T17:40:26.327Z,4.10
2023-05-25T17:42:53.184Z,4.35
2023-05-25T17:45:20.285Z,4.65
2023-05-25T17:47:47.233Z,3.53
2023-05-25T17:50:14.397Z,4.28
2023-05-25T17:52:42.885Z,4.60
2023-05-25T17:55:09.876Z,2.90
2023-05-25T17:57:36.693Z,5.40
2023-05-25T18:00:07.210Z,3.92
2023-05-25T18:02:34.364Z,2.53
2023-05-25T18:05:01.324Z,3.42
2023-05-25T18:07:28.237Z,4.07
2023-05-25T18:09:55.243Z,7.05
2023-05-25T18:12:22.125Z,3.47
2023-05-25T18:14:51.270Z,5.40
2023-05-25T18:17:18.392Z,3.00
2023-05-25T18:19:48.580Z,9.02
2023-05-25T18:22:16.034Z,6.47
2023-05-25T18:24:43.258Z,6.22
2023-05-25T18:27:10.838Z,4.60
2023-05-25T18:29:37.685Z,2.88
2023-05-25T18:32:05.024Z,4.03
2023-05-25T18:34:41.879Z,4.13
2023-05-25T18:37:09.034Z,4.50
2023-05-25T18:42:25.787Z,5.88
2023-05-25T18:44:55.942Z,3.33
2023-05-25T18:47:23.217Z,3.42
2023-05-25T18:49:59.171Z,7.10
2023-05-25T18:52:29.314Z,3.78
2023-05-25T18:54:56.709Z,10.35
2023-05-25T18:57:23.733Z,5.32
2023-05-25T18:59:53.534Z,3.88
2023-05-25T19:02:20.656Z,7.20
2023-05-25T19:04:47.788Z,4.78
2023-05-25T19:07:14.692Z,4.22
2023-05-25T19:09:42.463Z,5.47
2023-05-25T19:12:09.638Z,4.45
2023-05-25T19:14:36.808Z,4.20
2023-05-25T19:17:03.717Z,5.25
2023-05-25T19:19:30.867Z,4.45
2023-05-25T19:21:57.764Z,4.30
2023-05-25T19:24:24.753Z,4.50
2023-05-25T19:27:02.477Z,8.20
2023-05-25T19:29:37.064Z,5.85
2023-05-25T19:32:30.882Z,4.15
2023-05-25T19:34:57.972Z,4.00
2023-05-25T19:37:25.036Z,4.13
2023-05-25T19:39:52.047Z,8.48
2023-05-25T19:42:19.156Z,8.15
2023-05-25T19:44:46.398Z,6.40
2023-05-25T19:47:13.388Z,4.55
2023-05-25T19:49:40.316Z,3.97
2023-05-25T19:52:07.274Z,6.30
2023-05-25T19:54:34.314Z,4.32
2023-05-25T19:57:04.130Z,8.15
2023-05-25T19:59:31.571Z,10.73
2023-05-25T20:01:58.846Z,7.95
2023-05-25T20:04:25.959Z,7.13
2023-05-25T20:06:54.095Z,6.90
2023-05-25T20:09:30.163Z,5.40
2023-05-25T20:12:03.317Z,7.30
2023-05-25T20:14:34.038Z,6.10
2023-05-25T20:17:01.216Z,8.43
2023-05-25T20:19:28.053Z,4.32
2023-05-25T20:21:55.503Z,5.43
2023-05-25T20:24:22.376Z,3.67
2023-05-25T20:26:49.376Z,6.05
2023-05-25T20:29:16.257Z,5.00
2023-05-25T20:31:49.112Z,3.03
2023-05-25T20:34:16.199Z,3.90
2023-05-25T20:36:43.324Z,4.65
2023-05-25T20:39:10.441Z,4.53
2023-05-25T20:41:37.205Z,9.85
2023-05-25T20:44:06.839Z,4.95
2023-05-25T20:46:34.418Z,4.05
2023-05-25T20:49:03.158Z,3.55
2023-05-25T20:51:31.577Z,3.40
2023-05-25T20:53:58.730Z,5.55
2023-05-25T20:56:27.042Z,6.22
2023-05-25T20:58:54.692Z,3.97
2023-05-25T21:01:21.772Z,4.38
2023-05-25T21:03:48.890Z,6.40
2023-05-25T21:06:16.414Z,4.97
2023-05-25T21:08:43.452Z,3.78
2023-05-25T21:11:11.063Z,6.38
2023-05-25T21:13:38.261Z,4.47
2023-05-25T21:16:05.330Z,3.53
2023-05-25T21:18:32.277Z,3.83
2023-05-25T21:20:59.339Z,3.28
2023-05-25T21:23:26.541Z,3.17
2023-05-25T21:25:53.404Z,3.47
2023-05-25T21:28:20.593Z,5.63
2023-05-25T21:30:47.628Z,6.68
2023-05-25T21:33:15.049Z,3.83
2023-05-25T21:35:42.030Z,4.40
2023-05-25T21:38:09.274Z,5.60
2023-05-25T21:40:36.280Z,5.28
2023-05-25T21:43:03.964Z,3.92
2023-05-25T21:45:30.722Z,6.80
2023-05-25T21:47:57.722Z,4.65
2023-05-25T21:50:25.068Z,5.60
2023-05-25T21:52:51.912Z,5.20
2023-05-25T21:55:22.967Z,5.25
2023-05-25T21:57:50.310Z,3.15
2023-05-25T22:00:17.572Z,5.28
2023-05-25T22:02:44.628Z,4.03
2023-05-25T22:05:11.854Z,5.05
2023-05-25T22:07:39.022Z,5.15
2023-05-25T22:10:07.135Z,5.63
2023-05-25T22:12:34.429Z,4.97
2023-05-25T22:15:01.643Z,5.35
2023-05-25T22:17:28.526Z,4.90
2023-05-25T22:20:07.430Z,5.38
2023-05-25T22:22:35.729Z,5.18
2023-05-25T22:25:02.662Z,5.65
2023-05-25T22:27:29.554Z,3.20
2023-05-25T22:29:56.641Z,4.07
2023-05-25T22:32:23.673Z,5.57
2023-05-25T22:34:53.507Z,4.47
2023-05-25T22:37:21.337Z,5.18
2023-05-25T22:39:51.431Z,3.63
2023-05-25T22:42:21.219Z,4.32
2023-05-25T22:44:49.588Z,4.50
2023-05-25T22:47:16.465Z,4.85
2023-05-25T22:49:44.524Z,9.30
2023-05-25T22:52:12.267Z,4.50
2023-05-25T22:54:39.491Z,5.32
2023-05-25T22:57:07.270Z,5.60
2023-05-25T22:59:34.236Z,5.53
2023-05-25T23:02:01.318Z,4.15
2023-05-25T23:04:28.332Z,4.20
2023-05-25T23:06:58.250Z,4.22
2023-05-25T23:09:25.056Z,7.10
2023-05-25T23:11:54.099Z,3.90
2023-05-25T23:14:21.092Z,7.05
2023-05-25T23:16:50.992Z,6.30
2023-05-25T23:19:18.150Z,5.82
2023-05-25T23:21:45.152Z,5.78
2023-05-25T23:24:12.168Z,5.30
2023-05-25T23:26:38.952Z,5.18
2023-05-25T23:29:06.016Z,6.47
2023-05-25T23:31:33.143Z,4.90
2023-05-25T23:34:00.240Z,4.88
2023-05-25T23:36:28.521Z,6.03
2023-05-25T23:38:56.005Z,6.82
2023-05-25T23:41:27.471Z,4.32
2023-05-25T23:43:54.397Z,6.78
2023-05-25T23:46:21.439Z,7.78
2023-05-25T23:48:48.583Z,4.65
2023-05-25T23:51:16.619Z,5.20
2023-05-25T23:53:43.510Z,6.68
2023-05-25T23:56:10.320Z,4.45
2023-05-25T23:58:37.498Z,5.03
